Time;durP1;ratioP1;P1;durP2;ratioP2;P2;SDS_P1;SDS_P2;PMS_P1;PMS_P2;Temp;Humidity;BMP_temperature;BMP_pressure;BME280_temperature;BME280_humidity;BME280_pressure;Samples;Min_cycle;Max_cycle;Signal;HPM_P1;HPM_P2
2021/06/11 00:01:02;;;;;;;0.60;0.50;;;22.50;35.20;;;;;;5080043;28;20417;-72
2021/06/11 00:03:28;;;;;;;0.43;0.43;;;22.60;34.20;;;;;;5095357;28;20362;-72
2021/06/11 00:05:55;;;;;;;0.43;0.40;;;22.40;34.90;;;;;;5098737;28;20051;-71
2021/06/11 00:08:21;;;;;;;0.50;0.50;;;22.20;36.10;;;;;;5079613;28;20383;-70
2021/06/11 00:10:48;;;;;;;0.50;0.50;;;22.30;35.40;;;;;;5097205;28;20020;-70
2021/06/11 00:13:14;;;;;;;0.40;0.40;;;22.40;35.00;;;;;;5097197;28;20020;-70
2021/06/11 00:15:41;;;;;;;0.45;0.43;;;22.30;35.30;;;;;;5097093;28;20028;-70
2021/06/11 00:18:07;;;;;;;1.55;0.40;;;21.90;36.00;;;;;;5096802;28;20024;-70
2021/06/11 00:20:34;;;;;;;1.17;0.65;;;22.20;34.90;;;;;;5079297;28;20024;-70
2021/06/11 00:23:00;;;;;;;1.27;0.70;;;22.00;35.80;;;;;;5097136;28;20072;-71
2021/06/11 00:25:26;;;;;;;1.10;0.45;;;22.00;36.50;;;;;;5078899;28;20020;-70
2021/06/11 00:27:59;;;;;;;0.50;0.50;;;22.20;35.70;;;;;;5096622;28;20031;-70
2021/06/11 00:30:26;;;;;;;0.50;0.50;;;22.30;35.10;;;;;;5096830;28;20116;-70
2021/06/11 00:32:53;;;;;;;0.63;0.40;;;22.00;36.90;;;;;;5079039;28;20100;-70
2021/06/11 00:35:19;;;;;;;4.57;0.63;;;22.20;35.80;;;;;;5078825;28;20028;-70
2021/06/11 00:37:46;;;;;;;0.40;0.40;;;22.20;36.40;;;;;;5096669;28;20032;-71
2021/06/11 00:40:13;;;;;;;5.47;0.50;;;22.40;35.30;;;;;;5096945;28;20088;-70
2021/06/11 00:42:40;;;;;;;0.50;0.50;;;22.20;35.90;;;;;;5096834;28;20026;-71
2021/06/11 00:45:08;;;;;;;0.40;0.40;;;21.80;37.30;;;;;;5096002;28;20020;-70
2021/06/11 00:47:35;;;;;;;1.08;0.73;;;21.80;36.60;;;;;;5096320;28;20036;-72
2021/06/11 00:50:02;;;;;;;1.13;0.60;;;21.80;36.60;;;;;;5096731;28;20028;-70
2021/06/11 00:52:32;;;;;;;0.90;0.50;;;21.60;37.30;;;;;;5091883;28;20449;-71
2021/06/11 00:54:59;;;;;;;0.52;0.52;;;21.60;36.80;;;;;;5095763;28;20115;-70
2021/06/11 00:57:25;;;;;;;1.77;0.82;;;21.40;37.00;;;;;;5096413;28;20020;-70
2021/06/11 00:59:54;;;;;;;0.63;0.52;;;21.60;36.70;;;;;;5096401;28;20020;-71
2021/06/11 01:02:22;;;;;;;0.50;0.50;;;21.40;37.00;;;;;;5095806;28;20019;-71
2021/06/11 01:04:49;;;;;;;1.38;0.60;;;21.40;36.90;;;;;;5096222;28;20024;-70
2021/06/11 01:07:17;;;;;;;0.93;0.50;;;21.30;36.20;;;;;;5096252;28;20505;-69
2021/06/11 01:09:45;;;;;;;1.75;0.50;;;21.30;36.30;;;;;;5078508;28;20036;-70
2021/06/11 01:12:14;;;;;;;0.75;0.50;;;21.10;36.10;;;;;;5096007;28;20359;-70
2021/06/11 01:14:42;;;;;;;0.52;0.52;;;21.20;35.50;;;;;;5095809;28;20032;-69
2021/06/11 01:17:09;;;;;;;0.90;0.73;;;21.20;35.50;;;;;;5095794;28;20043;-70
2021/06/11 01:19:57;;;;;;;0.50;0.50;;;21.10;36.10;;;;;;5096064;28;20360;-70
2021/06/11 01:22:42;;;;;;;0.60;0.60;;;20.90;36.60;;;;;;5095923;28;20031;-70
2021/06/11 01:25:19;;;;;;;0.50;0.50;;;20.80;36.40;;;;;;5095914;28;20103;-71
2021/06/11 01:27:46;;;;;;;0.65;0.55;;;20.80;37.00;;;;;;5095953;28;20028;-70
2021/06/11 01:30:20;;;;;;;1.60;1.30;;;20.90;36.60;;;;;;5095988;28;20024;-71
2021/06/11 01:32:48;;;;;;;1.77;0.70;;;20.80;37.20;;;;;;5078065;28;20028;-70
2021/06/11 01:35:21;;;;;;;0.50;0.50;;;20.90;37.70;;;;;;5095400;28;20024;-71
2021/06/11 01:37:53;;;;;;;1.77;0.70;;;20.80;37.80;;;;;;5095872;28;20055;-70
2021/06/11 01:40:19;;;;;;;0.50;0.50;;;20.90;37.80;;;;;;5095937;28;20438;-71
2021/06/11 01:42:48;;;;;;;3.67;1.02;;;20.90;37.90;;;;;;5095822;28;20236;-70
2021/06/11 01:45:15;;;;;;;0.50;0.50;;;21.20;37.70;;;;;;5096350;28;20354;-71
2021/06/11 01:47:47;;;;;;;0.77;0.50;;;20.90;38.00;;;;;;5082957;28;20035;-70
2021/06/11 01:50:19;;;;;;;1.40;0.60;;;20.80;38.30;;;;;;5083640;28;20039;-70
2021/06/11 01:52:46;;;;;;;0.60;0.60;;;20.70;38.40;;;;;;5070365;28;20032;-71
2021/06/11 01:55:13;;;;;;;0.50;0.50;;;20.60;38.70;;;;;;5092885;28;20024;-71
2021/06/11 01:57:59;;;;;;;0.50;0.50;;;20.40;38.90;;;;;;5095386;28;20045;-71
2021/06/11 02:00:25;;;;;;;0.52;0.52;;;20.30;39.10;;;;;;5093717;28;20055;-71
2021/06/11 02:02:53;;;;;;;0.50;0.50;;;20.20;39.30;;;;;;5090165;28;20017;-71
2021/06/11 02:05:20;;;;;;;0.95;0.70;;;20.20;39.40;;;;;;5084794;28;20031;-72
2021/06/11 02:07:48;;;;;;;2.72;0.50;;;20.20;39.10;;;;;;5098574;28;20062;-73
2021/06/11 02:10:17;;;;;;;0.43;0.43;;;20.00;39.70;;;;;;5093370;28;20032;-72
2021/06/11 02:12:45;;;;;;;1.83;0.80;;;20.00;40.30;;;;;;5093156;28;20683;-72
2021/06/11 02:15:13;;;;;;;0.70;0.70;;;20.10;40.50;;;;;;5091736;28;20434;-72
2021/06/11 02:17:44;;;;;;;0.52;0.52;;;19.80;40.60;;;;;;5091943;28;20024;-72
2021/06/11 02:20:14;;;;;;;1.73;0.88;;;20.00;40.80;;;;;;5075162;28;20036;-73
2021/06/11 02:22:43;;;;;;;0.55;0.55;;;19.90;41.50;;;;;;5092962;28;20020;-72
2021/06/11 02:25:15;;;;;;;3.53;0.93;;;19.80;41.40;;;;;;5093892;28;20076;-72
2021/06/11 02:27:42;;;;;;;1.40;0.80;;;19.60;42.50;;;;;;5066493;28;20028;-72
2021/06/11 02:30:11;;;;;;;0.70;0.70;;;19.50;42.60;;;;;;5080400;28;20032;-72
2021/06/11 02:32:39;;;;;;;1.38;0.60;;;19.60;43.20;;;;;;5092849;28;20028;-73
2021/06/11 02:35:09;;;;;;;0.82;0.60;;;19.50;43.70;;;;;;5093658;28;20039;-73
2021/06/11 02:37:36;;;;;;;0.73;0.70;;;19.40;43.10;;;;;;5093765;28;20046;-72
2021/06/11 02:40:06;;;;;;;2.65;0.77;;;19.30;43.50;;;;;;5097606;28;20109;-72
2021/06/11 02:42:33;;;;;;;1.65;0.80;;;19.30;44.20;;;;;;5092256;28;20024;-71
2021/06/11 02:45:13;;;;;;;0.82;0.77;;;19.40;44.40;;;;;;5093883;28;20031;-71
2021/06/11 02:48:07;;;;;;;1.33;0.88;;;19.20;43.90;;;;;;5092333;28;20028;-72
2021/06/11 02:50:38;;;;;;;2.92;0.63;;;19.30;44.60;;;;;;5092563;28;20032;-73
2021/06/11 02:53:09;;;;;;;0.88;0.60;;;19.20;44.40;;;;;;5092018;28;20039;-72
2021/06/11 02:55:37;;;;;;;0.88;0.88;;;19.00;45.10;;;;;;5074346;28;20357;-72
2021/06/11 02:58:13;;;;;;;5.88;1.33;;;18.90;45.00;;;;;;5093858;28;20027;-71
2021/06/11 03:00:41;;;;;;;1.20;0.82;;;18.80;45.00;;;;;;5091879;28;20035;-72
2021/06/11 03:03:17;;;;;;;0.60;0.60;;;18.60;46.80;;;;;;5093161;28;20028;-73
2021/06/11 03:05:45;;;;;;;0.75;0.75;;;18.60;47.60;;;;;;5074124;28;20028;-73
2021/06/11 03:08:18;;;;;;;1.17;0.85;;;18.50;47.30;;;;;;5091333;28;20043;-73
2021/06/11 03:10:49;;;;;;;0.60;0.60;;;18.20;47.50;;;;;;5090990;28;20841;-74
2021/06/11 03:13:18;;;;;;;1.40;1.20;;;18.30;46.90;;;;;;5090280;28;20042;-73
2021/06/11 03:15:45;;;;;;;1.80;0.70;;;18.50;48.10;;;;;;5075066;28;20039;-73
2021/06/11 03:18:26;;;;;;;1.73;0.93;;;18.30;47.60;;;;;;5096659;28;20051;-73
2021/06/11 03:20:54;;;;;;;1.25;0.73;;;18.20;48.60;;;;;;5080147;28;20034;-73
2021/06/11 03:23:33;;;;;;;2.40;0.90;;;18.10;47.70;;;;;;5098024;28;20024;-73
2021/06/11 03:26:03;;;;;;;6.25;1.77;;;17.90;47.80;;;;;;5080277;28;20039;-74
2021/06/11 03:28:48;;;;;;;0.63;0.63;;;17.80;49.00;;;;;;5097746;28;20028;-73
2021/06/11 03:31:47;;;;;;;0.80;0.80;;;17.50;51.00;;;;;;5097443;28;20023;-73
2021/06/11 03:34:26;;;;;;;0.82;0.82;;;17.20;52.40;;;;;;5079898;28;20035;-73
2021/06/11 03:36:55;;;;;;;2.17;0.80;;;17.30;50.80;;;;;;5080687;28;20106;-73
2021/06/11 03:39:44;;;;;;;1.00;1.00;;;17.50;49.10;;;;;;5097605;28;20468;-74
2021/06/11 03:42:12;;;;;;;1.85;1.00;;;17.50;48.10;;;;;;5097697;28;20028;-73
2021/06/11 03:44:44;;;;;;;3.80;0.98;;;17.60;49.60;;;;;;5097644;28;20158;-73
2021/06/11 03:47:13;;;;;;;0.88;0.80;;;17.80;48.70;;;;;;5097161;28;20202;-72
2021/06/11 03:49:42;;;;;;;2.92;1.75;;;17.70;49.40;;;;;;5095709;28;20024;-72
2021/06/11 03:52:10;;;;;;;0.73;0.73;;;17.50;49.30;;;;;;5095043;28;20020;-73
2021/06/11 03:54:38;;;;;;;3.38;1.45;;;17.20;51.70;;;;;;5093655;28;20024;-73
2021/06/11 03:57:06;;;;;;;1.50;1.40;;;17.20;50.90;;;;;;5091404;28;20035;-73
2021/06/11 03:59:34;;;;;;;1.15;1.05;;;17.10;51.60;;;;;;5076544;28;20024;-73
2021/06/11 04:02:03;;;;;;;0.80;0.80;;;17.10;51.60;;;;;;5089658;28;20012;-72
2021/06/11 04:04:30;;;;;;;1.38;1.30;;;17.10;50.90;;;;;;5094714;28;20458;-73
2021/06/11 04:07:12;;;;;;;0.80;0.80;;;17.10;50.40;;;;;;5091156;28;20032;-73
2021/06/11 04:09:45;;;;;;;4.38;1.05;;;17.10;51.00;;;;;;5078234;28;20032;-73
2021/06/11 04:12:19;;;;;;;0.93;0.85;;;17.20;49.70;;;;;;5085614;28;20028;-73
2021/06/11 04:14:50;;;;;;;4.47;1.08;;;17.20;50.10;;;;;;5095909;28;20438;-73
2021/06/11 04:17:22;;;;;;;1.02;0.90;;;17.20;50.10;;;;;;5077451;28;20417;-72
2021/06/11 04:19:54;;;;;;;1.00;1.00;;;17.30;49.70;;;;;;5094799;28;20457;-72
2021/06/11 04:22:36;;;;;;;0.82;0.80;;;17.20;48.60;;;;;;5095261;28;20264;-71
2021/06/11 04:25:05;;;;;;;0.80;0.80;;;17.10;48.20;;;;;;5076884;28;20020;-72
2021/06/11 04:27:37;;;;;;;1.17;1.08;;;17.10;48.60;;;;;;5093843;28;20041;-72
2021/06/11 04:30:05;;;;;;;1.95;1.55;;;17.10;49.10;;;;;;5081584;28;20687;-72
2021/06/11 04:32:31;;;;;;;1.05;0.93;;;16.80;52.10;;;;;;5090435;28;20032;-71
2021/06/11 04:34:58;;;;;;;4.50;2.05;;;17.00;50.30;;;;;;5103275;28;20453;-71
2021/06/11 04:37:25;;;;;;;0.80;0.80;;;16.90;49.70;;;;;;5101223;28;20020;-72
2021/06/11 04:39:51;;;;;;;0.85;0.85;;;16.90;49.50;;;;;;5108226;28;20047;-71
2021/06/11 04:42:18;;;;;;;0.68;0.68;;;16.80;50.20;;;;;;5086302;28;20050;-72
2021/06/11 04:44:45;;;;;;;0.85;0.85;;;16.80;49.80;;;;;;5106826;28;20368;-71
2021/06/11 04:47:12;;;;;;;0.95;0.95;;;16.80;50.20;;;;;;5100827;28;20389;-72
2021/06/11 04:49:38;;;;;;;2.35;1.10;;;16.80;51.30;;;;;;5097956;28;20024;-72
2021/06/11 04:52:07;;;;;;;0.90;0.90;;;16.80;50.50;;;;;;5117195;28;20353;-71
2021/06/11 04:54:33;;;;;;;1.55;0.88;;;16.70;49.70;;;;;;5117059;28;20023;-71
2021/06/11 04:57:01;;;;;;;1.00;1.00;;;16.90;51.20;;;;;;5100352;28;20025;-72
2021/06/11 04:59:28;;;;;;;2.72;1.05;;;16.70;49.50;;;;;;5096522;28;20024;-71
2021/06/11 05:01:54;;;;;;;1.40;0.80;;;16.60;50.10;;;;;;5099242;28;20027;-71
2021/06/11 05:04:23;;;;;;;2.15;0.80;;;16.60;51.30;;;;;;5105859;28;20438;-71
2021/06/11 05:06:50;;;;;;;4.13;1.00;;;16.60;50.30;;;;;;5077262;28;20036;-70
2021/06/11 05:09:17;;;;;;;0.70;0.70;;;16.70;52.70;;;;;;5108811;28;20020;-70
2021/06/11 05:11:43;;;;;;;1.10;1.00;;;16.60;51.40;;;;;;5113000;28;20056;-71
2021/06/11 05:14:09;;;;;;;2.85;0.90;;;16.50;51.40;;;;;;5095731;28;20479;-71
2021/06/11 05:16:36;;;;;;;0.70;0.70;;;16.60;50.80;;;;;;5094891;28;20025;-71
2021/06/11 05:19:03;;;;;;;0.70;0.70;;;16.60;50.60;;;;;;5093569;28;20441;-70
2021/06/11 05:21:30;;;;;;;1.00;1.00;;;16.60;51.90;;;;;;5102840;28;20020;-71
2021/06/11 05:23:56;;;;;;;1.10;1.00;;;16.50;51.80;;;;;;5070379;28;20480;-71
2021/06/11 05:26:23;;;;;;;0.75;0.75;;;16.60;51.40;;;;;;5095674;28;20028;-70
2021/06/11 05:28:49;;;;;;;0.85;0.80;;;16.50;51.50;;;;;;5098664;28;20028;-71
2021/06/11 05:31:16;;;;;;;0.70;0.70;;;16.50;53.00;;;;;;5102192;28;20028;-71
2021/06/11 05:33:42;;;;;;;1.10;1.10;;;16.50;53.10;;;;;;5101211;28;20047;-71
2021/06/11 05:36:09;;;;;;;1.20;1.10;;;16.60;53.10;;;;;;5089173;28;20102;-71
2021/06/11 05:38:35;;;;;;;3.40;1.00;;;16.50;51.80;;;;;;5075345;28;20028;-71
2021/06/11 05:41:03;;;;;;;0.90;0.90;;;16.60;53.10;;;;;;5077948;28;20031;-71
2021/06/11 05:43:30;;;;;;;1.63;1.05;;;16.60;52.70;;;;;;5097091;28;20112;-71
2021/06/11 05:45:57;;;;;;;1.85;0.90;;;16.30;52.70;;;;;;5092771;28;20083;-70
2021/06/11 05:48:24;;;;;;;1.70;0.98;;;16.40;52.80;;;;;;5098106;28;20365;-70
2021/06/11 05:50:51;;;;;;;0.90;0.90;;;16.40;53.90;;;;;;5095398;28;20458;-70
2021/06/11 05:53:22;;;;;;;0.95;0.80;;;16.40;53.30;;;;;;5096474;28;20032;-70
2021/06/11 05:55:52;;;;;;;2.35;1.00;;;16.40;55.40;;;;;;5077215;28;20462;-70
2021/06/11 05:58:19;;;;;;;1.08;0.90;;;16.40;54.30;;;;;;5095282;28;20073;-70
2021/06/11 06:00:45;;;;;;;3.83;1.08;;;16.40;54.30;;;;;;5105715;28;20072;-70
2021/06/11 06:03:12;;;;;;;1.35;1.23;;;16.20;53.30;;;;;;5100128;28;20330;-71
2021/06/11 06:05:38;;;;;;;1.42;1.08;;;16.00;54.30;;;;;;5099977;28;20027;-71
2021/06/11 06:08:05;;;;;;;1.40;1.13;;;16.00;54.90;;;;;;5101388;28;20027;-71
2021/06/11 06:10:31;;;;;;;1.05;0.90;;;16.00;53.70;;;;;;5094749;28;20028;-72
2021/06/11 06:12:58;;;;;;;1.58;1.02;;;15.90;55.00;;;;;;5094405;28;20027;-71
2021/06/11 06:15:24;;;;;;;0.90;0.90;;;15.80;55.60;;;;;;5095866;28;20031;-72
2021/06/11 06:17:51;;;;;;;0.88;0.82;;;15.80;54.80;;;;;;5095865;28;20074;-73
2021/06/11 06:20:18;;;;;;;0.82;0.82;;;15.80;53.50;;;;;;5077913;28;20034;-72
2021/06/11 06:22:45;;;;;;;1.25;1.15;;;15.80;53.60;;;;;;5079910;28;20024;-72
2021/06/11 06:25:12;;;;;;;0.95;0.95;;;15.80;54.40;;;;;;5093667;28;20111;-72
2021/06/11 06:27:40;;;;;;;2.25;2.00;;;15.80;55.10;;;;;;5076956;28;20028;-71
2021/06/11 06:30:08;;;;;;;0.95;0.95;;;16.00;54.90;;;;;;5094532;28;20035;-71
2021/06/11 06:32:35;;;;;;;0.90;0.90;;;15.90;55.50;;;;;;5096868;28;20015;-72
2021/06/11 06:35:03;;;;;;;1.33;1.10;;;15.80;55.40;;;;;;5077362;28;20421;-72
2021/06/11 06:37:30;;;;;;;1.00;0.90;;;15.80;53.70;;;;;;5103261;28;20024;-71
2021/06/11 06:39:56;;;;;;;3.15;1.05;;;15.70;53.90;;;;;;5106387;28;20027;-71
2021/06/11 06:42:23;;;;;;;0.70;0.70;;;15.80;55.40;;;;;;5113005;28;20024;-71
2021/06/11 06:44:50;;;;;;;4.82;0.93;;;15.80;55.70;;;;;;5087294;28;20039;-72
2021/06/11 06:47:16;;;;;;;1.25;0.95;;;15.80;54.00;;;;;;5110427;28;20031;-71
2021/06/11 06:49:42;;;;;;;2.40;1.20;;;15.70;55.80;;;;;;5119252;28;20016;-72
2021/06/11 06:52:09;;;;;;;0.90;0.90;;;15.70;55.70;;;;;;5093195;28;20051;-71
2021/06/11 06:54:35;;;;;;;1.08;1.08;;;15.70;54.50;;;;;;5112486;28;20031;-71
2021/06/11 06:57:02;;;;;;;1.65;1.33;;;15.80;55.60;;;;;;5100703;28;20410;-71
2021/06/11 06:59:28;;;;;;;1.05;0.98;;;15.80;53.90;;;;;;5103840;28;20039;-72
2021/06/11 07:01:59;;;;;;;0.75;0.75;;;15.60;55.30;;;;;;5092867;28;20042;-71
2021/06/11 07:04:25;;;;;;;1.75;0.82;;;15.60;56.80;;;;;;5093808;28;20043;-71
2021/06/11 07:06:52;;;;;;;0.80;0.80;;;15.60;55.20;;;;;;5094006;28;20099;-71
2021/06/11 07:09:19;;;;;;;0.90;0.90;;;15.60;56.50;;;;;;5099605;28;20038;-71
2021/06/11 07:11:49;;;;;;;0.70;0.70;;;15.60;55.10;;;;;;5095233;28;20457;-71
2021/06/11 07:14:16;;;;;;;0.80;0.80;;;15.60;56.40;;;;;;5092851;28;20043;-71
2021/06/11 07:16:43;;;;;;;2.25;1.23;;;15.50;56.80;;;;;;5092966;28;20688;-71
2021/06/11 07:19:10;;;;;;;1.10;1.08;;;15.60;55.60;;;;;;5100631;28;20438;-71
2021/06/11 07:21:37;;;;;;;3.30;1.20;;;15.70;56.50;;;;;;5079207;28;20020;-71
2021/06/11 07:24:04;;;;;;;1.25;1.00;;;15.60;54.90;;;;;;5094070;28;20043;-71
2021/06/11 07:26:30;;;;;;;1.05;1.05;;;15.60;56.30;;;;;;5093391;28;20031;-71
2021/06/11 07:28:57;;;;;;;2.30;0.93;;;15.50;56.60;;;;;;5099221;28;20024;-73
2021/06/11 07:31:25;;;;;;;0.90;0.90;;;15.50;56.90;;;;;;5080837;28;20373;-72
2021/06/11 07:33:51;;;;;;;0.90;0.90;;;15.50;57.00;;;;;;5093049;28;20031;-71
2021/06/11 07:36:18;;;;;;;2.97;1.20;;;15.60;56.70;;;;;;5094938;28;20081;-71
2021/06/11 07:38:44;;;;;;;1.80;1.10;;;15.60;56.20;;;;;;5075245;28;20050;-71
2021/06/11 07:41:10;;;;;;;1.50;1.20;;;15.60;55.70;;;;;;5091540;28;20470;-71
2021/06/11 07:43:37;;;;;;;1.08;0.90;;;15.50;56.50;;;;;;5091716;28;20032;-71
2021/06/11 07:46:03;;;;;;;1.02;0.98;;;15.50;56.00;;;;;;5095035;28;20453;-71
2021/06/11 07:48:30;;;;;;;0.90;0.90;;;15.50;56.70;;;;;;5094460;28;20082;-71
2021/06/11 07:50:56;;;;;;;1.23;1.13;;;15.50;57.10;;;;;;5105428;28;20028;-71
2021/06/11 07:53:23;;;;;;;1.42;1.42;;;15.40;55.80;;;;;;5092691;28;20032;-71
2021/06/11 07:55:51;;;;;;;2.00;1.17;;;15.40;57.10;;;;;;5094044;28;20036;-72
2021/06/11 07:58:18;;;;;;;1.27;1.17;;;15.40;56.40;;;;;;5095349;28;20024;-71
2021/06/11 08:00:44;;;;;;;2.53;0.90;;;15.30;57.50;;;;;;5093105;28;20020;-71
2021/06/11 08:03:11;;;;;;;1.42;0.90;;;15.30;56.10;;;;;;5093816;28;20024;-71
2021/06/11 08:05:39;;;;;;;0.90;0.90;;;15.30;57.30;;;;;;5103552;28;20024;-71
2021/06/11 08:08:07;;;;;;;1.25;1.00;;;15.30;56.20;;;;;;5100025;28;20046;-71
2021/06/11 08:10:33;;;;;;;1.63;0.90;;;15.40;56.50;;;;;;5096889;28;20043;-71
2021/06/11 08:13:00;;;;;;;1.02;1.00;;;15.40;57.40;;;;;;5099490;28;20042;-71
2021/06/11 08:15:26;;;;;;;0.90;0.90;;;15.30;56.10;;;;;;5096840;28;20115;-71
2021/06/11 08:17:53;;;;;;;1.10;1.10;;;15.30;56.70;;;;;;5097773;28;20028;-71
2021/06/11 08:20:20;;;;;;;1.52;1.42;;;15.20;56.70;;;;;;5096710;28;20391;-71
2021/06/11 08:22:46;;;;;;;1.15;1.05;;;15.30;57.10;;;;;;5098828;28;20031;-72
2021/06/11 08:25:13;;;;;;;1.15;0.98;;;15.30;55.90;;;;;;5097443;28;20020;-71
2021/06/11 08:27:41;;;;;;;1.33;1.23;;;15.20;57.50;;;;;;5106663;28;20327;-71
2021/06/11 08:30:09;;;;;;;0.77;0.77;;;15.20;57.60;;;;;;5099744;28;20031;-71
2021/06/11 08:32:40;;;;;;;1.15;1.15;;;15.10;57.70;;;;;;5078002;28;20462;-72
2021/06/11 08:35:07;;;;;;;5.97;1.48;;;15.20;57.90;;;;;;5095803;28;20047;-72
2021/06/11 08:37:35;;;;;;;1.35;1.25;;;15.10;57.10;;;;;;5061535;28;20063;-72
2021/06/11 08:40:02;;;;;;;2.47;1.25;;;15.10;57.50;;;;;;5102822;28;20488;-72
2021/06/11 08:42:31;;;;;;;0.88;0.88;;;15.00;57.40;;;;;;5096433;28;20020;-71
2021/06/11 08:45:03;;;;;;;1.10;1.08;;;15.00;58.20;;;;;;5089552;28;20023;-71
2021/06/11 08:47:31;;;;;;;1.00;1.00;;;15.00;57.50;;;;;;5108762;28;20043;-72
2021/06/11 08:49:58;;;;;;;1.08;1.08;;;14.90;57.40;;;;;;5096509;28;20400;-71
2021/06/11 08:52:26;;;;;;;1.00;1.00;;;14.90;57.60;;;;;;5094980;28;20024;-71
2021/06/11 08:54:53;;;;;;;1.30;1.17;;;14.90;56.00;;;;;;5095289;28;20024;-71
2021/06/11 08:57:21;;;;;;;1.05;0.80;;;14.90;56.70;;;;;;5098824;28;20032;-72
2021/06/11 08:59:48;;;;;;;1.02;1.02;;;14.80;57.50;;;;;;5078300;28;20049;-71
2021/06/11 09:02:15;;;;;;;0.98;0.93;;;14.70;57.40;;;;;;5094644;28;20415;-72
2021/06/11 09:04:44;;;;;;;0.98;0.98;;;14.70;57.10;;;;;;5095088;28;20353;-71
2021/06/11 09:07:34;;;;;;;1.33;1.23;;;14.70;57.80;;;;;;5098310;28;20077;-72
2021/06/11 09:10:04;;;;;;;2.78;1.00;;;14.60;56.10;;;;;;5059107;28;20081;-72
2021/06/11 09:12:39;;;;;;;1.92;1.70;;;14.60;56.60;;;;;;5115948;28;20069;-71
2021/06/11 09:15:11;;;;;;;1.00;1.00;;;14.60;57.50;;;;;;5103212;28;20036;-71
2021/06/11 09:17:39;;;;;;;0.90;0.90;;;14.60;55.70;;;;;;5092233;28;20039;-71
2021/06/11 09:20:15;;;;;;;1.00;0.90;;;14.60;57.40;;;;;;5109647;28;20027;-71
2021/06/11 09:22:57;;;;;;;0.90;0.90;;;14.60;56.90;;;;;;5101686;28;20024;-72
2021/06/11 09:25:40;;;;;;;1.17;1.10;;;14.60;55.40;;;;;;5092492;28;20107;-71
2021/06/11 09:28:23;;;;;;;1.33;1.23;;;14.50;55.30;;;;;;5102579;28;20077;-72
2021/06/11 09:30:54;;;;;;;2.75;0.90;;;14.40;56.00;;;;;;5097239;28;20056;-72
2021/06/11 09:33:23;;;;;;;1.10;1.10;;;14.30;57.50;;;;;;5095199;28;20384;-71
2021/06/11 09:35:56;;;;;;;1.67;1.58;;;14.30;58.50;;;;;;5091841;28;20031;-71
2021/06/11 09:38:25;;;;;;;1.23;1.13;;;14.30;57.50;;;;;;5097375;28;20089;-71
2021/06/11 09:41:08;;;;;;;4.78;1.00;;;14.20;58.00;;;;;;5098622;28;20089;-71
2021/06/11 09:43:53;;;;;;;1.73;1.42;;;14.20;57.30;;;;;;5074138;28;20117;-72
2021/06/11 09:46:19;;;;;;;1.60;1.50;;;14.20;56.60;;;;;;5095863;28;20032;-71
2021/06/11 09:48:49;;;;;;;1.65;1.55;;;14.30;56.00;;;;;;5094440;28;20357;-71
2021/06/11 09:51:18;;;;;;;1.13;1.02;;;14.30;55.80;;;;;;5076401;28;20367;-72
2021/06/11 09:53:45;;;;;;;1.00;1.00;;;14.30;56.50;;;;;;5094171;28;20085;-72
2021/06/11 09:56:29;;;;;;;1.30;1.30;;;14.30;57.50;;;;;;5093934;28;20028;-71
2021/06/11 09:58:59;;;;;;;1.65;1.25;;;14.30;57.10;;;;;;5095119;28;20035;-72
2021/06/11 10:01:26;;;;;;;3.88;1.60;;;14.10;58.80;;;;;;5094350;28;20081;-71
2021/06/11 10:03:58;;;;;;;1.35;1.20;;;14.20;58.00;;;;;;5072655;28;20469;-71
2021/06/11 10:06:27;;;;;;;1.77;1.35;;;14.20;59.40;;;;;;5089855;28;20512;-71
2021/06/11 10:08:53;;;;;;;1.23;1.23;;;14.30;58.90;;;;;;5094674;28;20032;-72
2021/06/11 10:11:25;;;;;;;1.95;1.73;;;14.30;59.20;;;;;;5094713;28;20040;-71
2021/06/11 10:13:54;;;;;;;1.33;1.23;;;14.40;58.90;;;;;;5095275;28;20453;-71
2021/06/11 10:16:21;;;;;;;3.15;1.10;;;14.30;60.50;;;;;;5093054;28;20031;-71
2021/06/11 10:18:49;;;;;;;1.33;1.20;;;14.40;60.20;;;;;;5093759;28;20642;-71
2021/06/11 10:21:16;;;;;;;1.73;1.35;;;14.40;59.10;;;;;;5093354;28;20035;-72
2021/06/11 10:23:43;;;;;;;1.25;1.25;;;14.40;59.90;;;;;;5094581;28;20039;-72
2021/06/11 10:26:11;;;;;;;5.13;1.15;;;14.50;61.00;;;;;;5089783;28;20457;-73
2021/06/11 10:28:43;;;;;;;0.95;0.90;;;14.50;59.00;;;;;;5076563;28;20036;-73
2021/06/11 10:31:10;;;;;;;1.92;1.20;;;14.50;60.90;;;;;;5096402;28;20039;-72
2021/06/11 10:34:00;;;;;;;1.15;1.05;;;14.40;61.70;;;;;;5096343;28;20027;-73
2021/06/11 10:38:54;;;;;;;1.75;1.05;;;14.40;61.10;;;;;;5094118;28;20031;-71
2021/06/11 10:41:22;;;;;;;0.90;0.90;;;14.50;59.50;;;;;;5093450;28;20024;-71
2021/06/11 10:43:49;;;;;;;5.65;1.77;;;14.50;58.30;;;;;;5095475;28;20031;-72
2021/06/11 10:46:32;;;;;;;2.72;1.58;;;14.50;60.80;;;;;;5093774;28;20031;-72
2021/06/11 10:49:11;;;;;;;0.90;0.90;;;14.50;59.50;;;;;;5094015;28;20024;-72
2021/06/11 10:51:40;;;;;;;1.65;1.13;;;14.40;60.70;;;;;;5076280;28;20070;-71
2021/06/11 10:54:26;;;;;;;0.95;0.95;;;14.40;59.40;;;;;;5092120;28;20050;-72
2021/06/11 10:57:00;;;;;;;2.45;1.45;;;14.30;59.50;;;;;;5094492;28;20245;-72
2021/06/11 10:59:40;;;;;;;1.42;1.33;;;14.40;60.90;;;;;;5093846;28;20028;-71
2021/06/11 11:02:08;;;;;;;1.00;1.00;;;14.30;60.70;;;;;;5092940;28;20036;-71
2021/06/11 11:04:50;;;;;;;1.33;1.23;;;14.30;60.50;;;;;;5093498;28;20046;-72
2021/06/11 11:07:32;;;;;;;1.20;1.20;;;14.30;59.60;;;;;;5093920;28;20465;-71
2021/06/11 11:10:04;;;;;;;1.48;1.40;;;14.20;60.00;;;;;;5094099;28;20028;-72
2021/06/11 11:12:50;;;;;;;1.23;1.13;;;14.20;60.00;;;;;;5091780;28;20030;-72
2021/06/11 11:15:51;;;;;;;1.02;1.02;;;14.10;60.10;;;;;;5093598;28;20093;-71
2021/06/11 11:18:40;;;;;;;0.93;0.93;;;14.10;59.60;;;;;;5076149;28;20461;-72
2021/06/11 11:21:34;;;;;;;1.10;1.00;;;14.00;60.00;;;;;;5075426;28;20028;-72
2021/06/11 11:24:05;;;;;;;1.25;1.15;;;14.00;59.30;;;;;;5087516;28;20481;-71
2021/06/11 11:26:50;;;;;;;1.38;1.27;;;14.00;60.20;;;;;;5093066;28;20036;-71
2021/06/11 11:29:19;;;;;;;0.93;0.93;;;13.90;59.70;;;;;;5092563;28;20064;-72
2021/06/11 11:31:48;;;;;;;1.05;1.05;;;13.90;60.90;;;;;;5074342;28;20505;-71
2021/06/11 11:34:14;;;;;;;0.80;0.80;;;13.90;60.70;;;;;;5093481;28;20052;-72
2021/06/11 11:36:41;;;;;;;1.00;1.00;;;13.80;60.40;;;;;;5095557;28;20024;-71
2021/06/11 11:39:10;;;;;;;1.83;1.60;;;13.80;60.50;;;;;;5097703;28;20024;-72
2021/06/11 11:41:38;;;;;;;0.93;0.93;;;13.80;60.30;;;;;;5097460;28;20023;-72
2021/06/11 11:44:05;;;;;;;0.90;0.90;;;13.80;60.40;;;;;;5078708;28;20028;-72
2021/06/11 11:46:31;;;;;;;2.83;1.25;;;13.80;60.30;;;;;;5096548;28;20342;-72
2021/06/11 11:48:58;;;;;;;0.80;0.80;;;13.80;60.40;;;;;;5097186;28;20027;-72
2021/06/11 11:51:25;;;;;;;0.90;0.90;;;13.70;60.30;;;;;;5067021;28;20082;-72
2021/06/11 11:53:51;;;;;;;2.92;1.20;;;13.70;60.50;;;;;;5100012;28;20024;-71
2021/06/11 11:56:18;;;;;;;0.93;0.93;;;13.70;60.30;;;;;;5097298;28;20028;-72
2021/06/11 11:58:44;;;;;;;1.13;1.13;;;13.70;60.30;;;;;;5096205;28;20469;-72
2021/06/11 12:01:11;;;;;;;1.08;1.08;;;13.70;60.40;;;;;;5097384;28;20067;-73
2021/06/11 12:03:38;;;;;;;3.47;1.17;;;13.70;60.70;;;;;;5097209;28;20016;-71
2021/06/11 12:06:04;;;;;;;0.93;0.93;;;13.60;60.70;;;;;;5074429;28;20017;-73
2021/06/11 12:08:31;;;;;;;1.08;1.02;;;13.60;60.20;;;;;;5096828;28;20045;-72
2021/06/11 12:10:57;;;;;;;3.00;1.25;;;13.60;60.20;;;;;;5079198;28;20032;-71
2021/06/11 12:13:26;;;;;;;1.67;1.38;;;13.60;61.00;;;;;;5096654;28;20462;-73
2021/06/11 12:15:53;;;;;;;2.58;1.00;;;13.60;60.60;;;;;;5078081;28;20035;-73
2021/06/11 12:18:20;;;;;;;0.90;0.90;;;13.60;61.50;;;;;;5095600;28;20459;-74
2021/06/11 12:20:46;;;;;;;1.10;1.10;;;13.60;60.60;;;;;;5096660;28;20349;-74
2021/06/11 12:23:13;;;;;;;1.20;1.20;;;13.60;60.00;;;;;;5095024;28;20371;-71
2021/06/11 12:25:39;;;;;;;1.20;1.20;;;13.60;60.70;;;;;;5096985;28;20405;-73
2021/06/11 12:28:05;;;;;;;1.00;1.00;;;13.60;60.40;;;;;;5091045;28;20485;-73
2021/06/11 12:30:32;;;;;;;0.95;0.95;;;13.50;60.70;;;;;;5095254;28;20035;-73
2021/06/11 12:32:58;;;;;;;1.33;1.23;;;13.50;60.00;;;;;;5097950;28;20016;-74
2021/06/11 12:35:25;;;;;;;1.00;1.00;;;13.50;60.90;;;;;;5096587;28;20036;-74
2021/06/11 12:37:54;;;;;;;1.00;1.00;;;13.50;60.70;;;;;;5096251;28;20111;-75
2021/06/11 12:40:21;;;;;;;1.10;1.10;;;13.50;61.30;;;;;;5097192;28;20081;-73
2021/06/11 12:42:52;;;;;;;1.75;1.10;;;13.50;61.10;;;;;;5097609;28;20020;-73
2021/06/11 12:45:18;;;;;;;0.90;0.90;;;13.50;61.60;;;;;;5094117;28;20020;-73
2021/06/11 12:47:45;;;;;;;1.13;1.13;;;13.40;61.20;;;;;;5075311;28;20029;-73
2021/06/11 12:50:12;;;;;;;1.38;1.27;;;13.40;61.50;;;;;;5095059;28;20040;-74
2021/06/11 12:52:38;;;;;;;1.85;1.40;;;13.40;61.50;;;;;;5096216;28;20035;-73
2021/06/11 12:55:06;;;;;;;1.23;1.23;;;13.40;61.00;;;;;;5096304;28;20101;-74
2021/06/11 12:57:33;;;;;;;1.23;1.23;;;13.40;61.80;;;;;;5096046;28;20028;-74
2021/06/11 13:00:00;;;;;;;1.08;1.08;;;13.40;61.70;;;;;;5095122;28;20463;-73
2021/06/11 13:02:28;;;;;;;1.35;1.25;;;13.40;61.30;;;;;;5094635;28;20438;-73